createdAt,value
2018-06-27T00:00:01.807Z,83.51
2018-06-27T00:01:22.499Z,83.90
2018-06-27T00:02:24.555Z,84.47
2018-06-27T00:03:14.838Z,84.56
2018-06-27T00:04:36.342Z,83.99
2018-06-27T00:06:40.656Z,84.95
2018-06-27T00:09:10.571Z,85.24
2018-06-27T00:11:09.866Z,85.71
2018-06-27T00:12:14.482Z,85.33
2018-06-27T00:16:30.380Z,84.76
2018-06-27T00:19:00.911Z,84.52
2018-06-27T00:19:34.600Z,84.19
2018-06-27T00:20:43.311Z,84.72
2018-06-27T00:21:58.577Z,84.72
2018-06-27T00:23:17.731Z,84.85
2018-06-27T00:24:07.498Z,85.38
2018-06-27T00:25:06.206Z,85.00
2018-06-27T00:26:06.284Z,84.91
2018-06-27T00:28:33.332Z,84.62
2018-06-27T00:30:39.281Z,84.81
2018-06-27T00:31:34.579Z,84.81
2018-06-27T00:32:45.337Z,84.91
2018-06-27T00:33:57.368Z,85.10
2018-06-27T00:35:05.115Z,84.91
2018-06-27T00:36:18.637Z,85.19
2018-06-27T00:37:09.223Z,84.72
2018-06-27T00:38:35.342Z,85.33
2018-06-27T00:39:30.026Z,85.33
2018-06-27T00:40:24.194Z,85.38
2018-06-27T00:41:54.720Z,85.90
2018-06-27T00:43:50.636Z,85.10
2018-06-27T00:44:50.747Z,85.00
2018-06-27T00:45:55.973Z,84.81
2018-06-27T00:47:01.203Z,85.00
2018-06-27T00:48:04.182Z,84.91
2018-06-27T00:50:15.155Z,85.29
2018-06-27T00:51:18.637Z,84.81
2018-06-27T00:52:41.381Z,84.72
2018-06-27T00:53:40.156Z,85.58
2018-06-27T00:54:44.565Z,84.91
2018-06-27T00:55:35.560Z,84.91
2018-06-27T00:56:57.585Z,85.00
2018-06-27T00:57:57.590Z,84.81
2018-06-27T01:00:05.386Z,84.91
2018-06-27T01:01:22.493Z,84.81
2018-06-27T01:02:22.100Z,85.29
2018-06-27T01:04:23.128Z,84.62
2018-06-27T01:05:40.236Z,84.91
2018-06-27T01:06:42.722Z,84.62
2018-06-27T01:07:47.315Z,85.29
2018-06-27T01:10:02.279Z,84.33
2018-06-27T01:10:55.117Z,84.52
2018-06-27T01:12:10.588Z,84.23
2018-06-27T01:13:18.786Z,84.14
2018-06-27T01:14:08.354Z,84.52
2018-06-27T01:15:27.093Z,84.81
2018-06-27T01:17:40.634Z,84.72
2018-06-27T01:20:50.582Z,85.38
2018-06-27T01:23:09.536Z,85.19
2018-06-27T01:25:01.663Z,85.38
2018-06-27T01:26:17.340Z,84.81
2018-06-27T01:27:24.310Z,84.91
2018-06-27T01:28:36.194Z,85.10
2018-06-27T01:29:29.237Z,84.72
2018-06-27T01:31:42.665Z,84.81
2018-06-27T01:32:55.986Z,85.10
2018-06-27T01:34:06.351Z,84.91
2018-06-27T01:34:59.172Z,84.91
2018-06-27T01:36:01.432Z,85.19
2018-06-27T01:37:07.481Z,85.10
2018-06-27T01:38:09.851Z,85.67
2018-06-27T01:39:29.305Z,84.91
2018-06-27T01:40:36.274Z,85.10
2018-06-27T01:42:43.048Z,85.67
2018-06-27T01:43:42.140Z,85.48
2018-06-27T01:44:47.976Z,85.77
2018-06-27T01:45:49.008Z,85.10
2018-06-27T01:46:57.924Z,85.19
2018-06-27T01:48:04.892Z,84.91
2018-06-27T01:49:11.657Z,85.48
2018-06-27T01:50:15.564Z,85.00
2018-06-27T01:51:26.632Z,84.81
2018-06-27T01:52:27.147Z,85.10
2018-06-27T01:54:41.694Z,84.81
2018-06-27T01:55:46.720Z,85.00
2018-06-27T01:56:46.729Z,84.91
2018-06-27T01:57:59.536Z,85.96
2018-06-27T01:58:56.570Z,85.96
2018-06-27T02:00:11.739Z,85.96
2018-06-27T02:01:28.343Z,85.96
2018-06-27T02:02:26.390Z,86.05
2018-06-27T02:03:20.661Z,85.38
2018-06-27T02:04:35.517Z,85.67
2018-06-27T02:05:37.570Z,84.77
2018-06-27T02:07:45.060Z,85.44
2018-06-27T02:08:55.922Z,85.25
2018-06-27T02:09:56.748Z,85.48
2018-06-27T02:13:13.151Z,85.05
2018-06-27T02:14:29.952Z,84.77
2018-06-27T02:15:18.387Z,84.77
2018-06-27T02:17:37.960Z,85.15
2018-06-27T02:18:45.031Z,84.86
2018-06-27T02:20:04.086Z,85.05
2018-06-27T02:20:56.214Z,85.53
2018-06-27T02:21:57.138Z,84.86
2018-06-27T02:23:04.010Z,85.10
2018-06-27T02:24:02.165Z,84.86
2018-06-27T02:25:24.762Z,84.86
2018-06-27T02:27:24.742Z,84.86
2018-06-27T02:28:32.708Z,85.15
2018-06-27T02:30:39.788Z,85.72
2018-06-27T02:31:54.541Z,86.01
2018-06-27T02:32:44.717Z,85.82
2018-06-27T02:35:04.599Z,86.10
2018-06-27T02:36:01.539Z,86.01
2018-06-27T02:37:16.182Z,86.58
2018-06-27T02:38:15.368Z,87.06
2018-06-27T02:39:35.549Z,87.35
2018-06-27T02:40:26.544Z,87.35
2018-06-27T02:41:34.335Z,87.63
2018-06-27T02:44:50.739Z,86.96
2018-06-27T02:46:01.709Z,86.96
2018-06-27T02:47:03.346Z,86.77
2018-06-27T02:48:13.286Z,87.25
2018-06-27T02:49:16.058Z,87.06
2018-06-27T02:50:14.222Z,86.68
2018-06-27T02:51:21.095Z,86.49
2018-06-27T02:53:36.273Z,86.30
2018-06-27T02:54:46.096Z,86.20
2018-06-27T02:55:42.620Z,85.91
2018-06-27T02:56:56.759Z,85.63
2018-06-27T02:58:13.664Z,85.82
2018-06-27T02:59:03.633Z,86.20
2018-06-27T03:00:07.632Z,85.82
2018-06-27T03:01:12.560Z,86.01
2018-06-27T03:02:21.472Z,85.72
2018-06-27T03:03:25.786Z,85.91
2018-06-27T03:04:42.271Z,86.10
2018-06-27T03:05:30.197Z,85.91
2018-06-27T03:06:44.240Z,85.82
2018-06-27T03:07:45.262Z,85.91
2018-06-27T03:08:44.560Z,86.30
2018-06-27T03:09:57.155Z,86.01
2018-06-27T03:11:00.338Z,85.63
2018-06-27T03:12:09.046Z,85.44
2018-06-27T03:13:16.119Z,84.77
2018-06-27T03:14:15.716Z,85.05
2018-06-27T03:15:29.852Z,85.34
2018-06-27T03:17:30.585Z,85.63
2018-06-27T03:19:59.577Z,85.91
2018-06-27T03:20:56.512Z,86.10
2018-06-27T03:22:04.199Z,86.01
2018-06-27T03:22:59.598Z,85.82
2018-06-27T03:24:06.771Z,86.25
2018-06-27T03:25:15.382Z,85.91
2018-06-27T03:26:18.970Z,86.06
2018-06-27T03:27:20.309Z,85.97
2018-06-27T03:28:28.304Z,86.44
2018-06-27T03:29:34.862Z,86.16
2018-06-27T03:31:57.279Z,85.97
2018-06-27T03:33:57.110Z,86.25
2018-06-27T03:37:10.282Z,85.49
2018-06-27T03:38:25.913Z,85.58
2018-06-27T03:39:21.415Z,85.77
2018-06-27T03:40:45.282Z,86.16
2018-06-27T03:41:38.788Z,86.25
2018-06-27T03:42:46.115Z,85.97
2018-06-27T03:43:40.282Z,85.97
2018-06-27T03:44:51.144Z,86.25
2018-06-27T03:45:51.775Z,85.77
2018-06-27T03:47:12.765Z,85.87
2018-06-27T03:48:10.787Z,85.97
2018-06-27T03:49:29.775Z,85.77
2018-06-27T03:50:23.024Z,86.35
2018-06-27T03:52:28.071Z,86.06
2018-06-27T03:53:37.490Z,86.25
2018-06-27T03:54:54.591Z,86.16
2018-06-27T03:55:47.742Z,86.30
2018-06-27T03:57:00.646Z,85.97
2018-06-27T03:58:03.622Z,86.25
2018-06-27T03:59:03.943Z,85.39
2018-06-27T04:00:13.568Z,85.49
2018-06-27T04:03:25.160Z,86.20
2018-06-27T04:05:37.362Z,87.06
2018-06-27T04:06:52.833Z,86.39
2018-06-27T04:07:52.128Z,86.96
2018-06-27T04:08:52.535Z,87.63
2018-06-27T04:09:56.946Z,87.73
2018-06-27T04:11:08.832Z,87.92
2018-06-27T04:12:09.554Z,87.73
2018-06-27T04:13:20.721Z,88.20
2018-06-27T04:14:16.429Z,88.40
2018-06-27T04:15:36.710Z,87.92
2018-06-27T04:16:33.545Z,88.20
2018-06-27T04:18:40.725Z,88.78
2018-06-27T04:19:52.918Z,88.78
2018-06-27T04:21:00.296Z,89.06
2018-06-27T04:22:02.557Z,89.16
2018-06-27T04:23:07.485Z,89.06
2018-06-27T04:24:08.263Z,89.16
2018-06-27T04:25:31.306Z,89.25
2018-06-27T04:28:32.602Z,89.92
2018-06-27T04:29:46.128Z,89.92
2018-06-27T04:30:43.877Z,89.83
2018-06-27T04:31:51.054Z,89.92
2018-06-27T04:33:00.072Z,90.40
2018-06-27T04:34:07.306Z,90.54
2018-06-27T04:35:04.899Z,90.73
2018-06-27T04:36:15.541Z,90.54
2018-06-27T04:37:18.122Z,90.73
2018-06-27T04:38:35.843Z,91.21
2018-06-27T04:40:30.020Z,91.40
2018-06-27T04:41:45.801Z,91.50
2018-06-27T04:42:54.920Z,91.40
2018-06-27T04:45:00.868Z,91.50
2018-06-27T04:45:55.654Z,91.69
2018-06-27T04:47:05.798Z,91.88
2018-06-27T04:48:16.864Z,91.69
2018-06-27T04:49:11.545Z,92.07
2018-06-27T04:50:26.504Z,91.50
2018-06-27T04:51:20.564Z,91.50
2018-06-27T04:52:30.613Z,91.50
2018-06-27T04:53:51.415Z,91.78
2018-06-27T04:54:47.604Z,91.78
2018-06-27T04:55:57.564Z,91.88
2018-06-27T04:57:08.529Z,92.21
2018-06-27T04:59:11.567Z,92.02
2018-06-27T05:02:22.283Z,91.74
2018-06-27T05:03:39.288Z,91.64
2018-06-27T05:04:35.814Z,91.74
2018-06-27T05:05:54.317Z,92.02
2018-06-27T05:07:02.047Z,92.21
2018-06-27T05:08:05.222Z,92.21
2018-06-27T05:08:55.296Z,91.93
2018-06-27T05:11:12.218Z,92.02
2018-06-27T05:12:17.131Z,92.21
2018-06-27T05:13:39.561Z,92.50
2018-06-27T05:16:33.573Z,92.69
2018-06-27T05:17:46.552Z,93.02
2018-06-27T05:18:52.299Z,92.83
2018-06-27T05:20:14.931Z,92.83
2018-06-27T05:21:03.986Z,93.12
2018-06-27T05:22:05.727Z,93.21
2018-06-27T05:23:30.831Z,93.12
2018-06-27T05:24:38.817Z,92.93
2018-06-27T05:25:26.126Z,92.64
2018-06-27T05:26:34.122Z,92.74
2018-06-27T05:27:49.081Z,92.35
2018-06-27T05:29:21.033Z,92.54
2018-06-27T05:30:11.935Z,92.45
2018-06-27T05:30:54.578Z,92.59
2018-06-27T05:32:48.095Z,93.07
2018-06-27T05:35:48.313Z,92.40
2018-06-27T05:36:48.535Z,92.59
2018-06-27T05:37:36.346Z,92.97
2018-06-27T05:38:57.344Z,92.40
2018-06-27T05:41:06.371Z,93.07
2018-06-27T05:42:03.332Z,92.78
2018-06-27T05:43:02.491Z,92.63
2018-06-27T05:44:11.434Z,92.69
2018-06-27T05:45:16.332Z,92.63
2018-06-27T05:47:26.172Z,92.63
2018-06-27T05:48:23.314Z,93.02
2018-06-27T05:49:46.257Z,92.83
2018-06-27T05:50:39.300Z,92.44
2018-06-27T05:52:58.360Z,92.44
2018-06-27T05:53:56.527Z,92.25
2018-06-27T05:55:03.804Z,92.54
2018-06-27T05:56:09.133Z,92.16
2018-06-27T05:59:24.410Z,92.01
2018-06-27T06:00:26.264Z,92.01
2018-06-27T06:01:27.906Z,92.11
2018-06-27T06:02:37.846Z,92.21
2018-06-27T06:04:51.073Z,92.11
2018-06-27T06:05:55.074Z,91.53
2018-06-27T06:06:56.119Z,91.72
2018-06-27T06:08:02.402Z,91.05
2018-06-27T06:09:09.630Z,91.19
2018-06-27T06:10:22.342Z,91.29
2018-06-27T06:11:23.191Z,91.10
2018-06-27T06:12:24.294Z,91.19
2018-06-27T06:13:40.070Z,91.10
2018-06-27T06:14:31.681Z,90.91
2018-06-27T06:15:51.346Z,90.81
2018-06-27T06:17:45.941Z,90.53
2018-06-27T06:18:56.804Z,90.23
2018-06-27T06:20:06.121Z,90.14
2018-06-27T06:21:09.002Z,90.23
2018-06-27T06:24:32.671Z,89.28
2018-06-27T06:25:31.959Z,89.51
2018-06-27T06:26:40.569Z,89.51
2018-06-27T06:27:43.442Z,88.84
2018-06-27T06:29:55.235Z,88.56
2018-06-27T06:31:10.703Z,88.46
2018-06-27T06:32:12.922Z,88.46
2018-06-27T06:33:10.204Z,88.37
2018-06-27T06:35:29.774Z,88.17
2018-06-27T06:36:30.500Z,87.98
2018-06-27T06:37:43.525Z,87.88
2018-06-27T06:38:43.926Z,87.98
2018-06-27T06:40:59.607Z,87.16
2018-06-27T06:42:01.456Z,87.16
2018-06-27T06:43:01.873Z,87.26
2018-06-27T06:44:06.897Z,87.35
2018-06-27T06:45:24.417Z,86.78
2018-06-27T06:46:34.664Z,86.78
2018-06-27T06:47:28.833Z,86.78
2018-06-27T06:48:32.361Z,86.78
2018-06-27T06:49:36.597Z,86.78
2018-06-27T06:50:47.399Z,86.58
2018-06-27T06:51:38.510Z,86.68
2018-06-27T06:52:47.607Z,86.30
2018-06-27T06:54:01.546Z,86.11
2018-06-27T06:56:09.130Z,85.77
2018-06-27T06:57:16.714Z,85.77
2018-06-27T06:58:20.818Z,85.48
2018-06-27T06:59:27.786Z,85.19
2018-06-27T07:00:35.584Z,85.00
2018-06-27T07:01:35.894Z,85.58
2018-06-27T07:03:46.757Z,85.19
2018-06-27T07:04:49.860Z,85.28
2018-06-27T07:05:59.776Z,85.28
2018-06-27T07:07:06.340Z,85.10
2018-06-27T07:08:06.444Z,85.19
2018-06-27T07:09:20.583Z,85.19
2018-06-27T07:11:26.444Z,85.14
2018-06-27T07:12:29.001Z,85.24
2018-06-27T07:13:30.134Z,84.75
2018-06-27T07:14:38.332Z,85.28
2018-06-27T07:15:52.163Z,85.14
2018-06-27T07:17:02.205Z,85.33
2018-06-27T07:17:58.832Z,84.95
2018-06-27T07:19:13.687Z,84.75
2018-06-27T07:21:10.607Z,84.08
2018-06-27T07:22:33.883Z,83.70
2018-06-27T07:24:32.666Z,83.70
2018-06-27T07:25:33.389Z,83.60
2018-06-27T07:26:43.023Z,83.51
2018-06-27T07:28:54.612Z,83.36
2018-06-27T07:30:10.902Z,83.45
2018-06-27T07:31:16.845Z,83.07
2018-06-27T07:34:33.449Z,82.59
2018-06-27T07:35:46.462Z,82.68
2018-06-27T07:36:36.646Z,82.78
2018-06-27T07:37:42.797Z,83.16
2018-06-27T07:38:51.398Z,82.68
2018-06-27T07:40:52.025Z,83.01
2018-06-27T07:42:13.437Z,82.92
2018-06-27T07:43:27.060Z,82.53
2018-06-27T07:44:18.572Z,83.11
2018-06-27T07:45:30.657Z,83.11
2018-06-27T07:47:39.068Z,82.24
2018-06-27T07:48:36.823Z,82.24
2018-06-27T07:49:54.507Z,81.67
2018-06-27T07:50:51.070Z,81.76
2018-06-27T07:52:12.068Z,81.52
2018-06-27T07:53:04.090Z,81.32
2018-06-27T07:54:17.201Z,81.52
2018-06-27T07:55:13.896Z,81.71
2018-06-27T07:56:17.830Z,81.71
2018-06-27T07:57:18.245Z,81.61
2018-06-27T07:58:42.828Z,81.32
2018-06-27T07:59:37.715Z,81.32
2018-06-27T08:00:33.422Z,81.71
2018-06-27T08:01:47.253Z,81.23
2018-06-27T08:03:00.268Z,81.42
2018-06-27T08:03:52.077Z,81.13
2018-06-27T08:05:06.619Z,81.52
2018-06-27T08:06:08.782Z,81.07
2018-06-27T08:07:06.950Z,80.88
2018-06-27T08:08:18.122Z,80.98
2018-06-27T08:09:21.402Z,80.98
2018-06-27T08:10:44.958Z,81.27
2018-06-27T08:11:35.445Z,80.98
2018-06-27T08:12:32.026Z,80.69
2018-06-27T08:13:45.797Z,80.98
2018-06-27T08:14:55.123Z,80.50
2018-06-27T08:15:55.622Z,80.79
2018-06-27T08:17:02.405Z,80.98
2018-06-27T08:18:05.363Z,80.92
2018-06-27T08:22:25.070Z,80.15
2018-06-27T08:23:35.420Z,80.25
2018-06-27T08:24:40.242Z,80.35
2018-06-27T08:25:43.121Z,79.96
2018-06-27T08:26:49.468Z,79.96
2018-06-27T08:27:59.307Z,80.06
2018-06-27T08:29:06.626Z,80.06
2018-06-27T08:30:13.349Z,80.35
2018-06-27T08:32:19.629Z,80.10
2018-06-27T08:33:25.350Z,79.81
2018-06-27T08:35:29.870Z,80.00
2018-06-27T08:36:43.909Z,79.52
2018-06-27T08:37:40.020Z,79.81
2018-06-27T08:38:47.297Z,79.13
2018-06-27T08:40:01.662Z,78.79
2018-06-27T08:41:00.417Z,79.33
2018-06-27T08:42:14.043Z,78.31
2018-06-27T08:43:24.910Z,78.11
2018-06-27T08:44:20.147Z,78.31
2018-06-27T08:45:22.155Z,77.92
2018-06-27T08:46:37.111Z,78.31
2018-06-27T08:47:38.756Z,78.88
2018-06-27T08:50:51.681Z,78.15
2018-06-27T08:52:59.372Z,77.58
2018-06-27T08:54:06.137Z,78.06
2018-06-27T08:56:18.421Z,76.71
2018-06-27T08:57:22.037Z,76.13
2018-06-27T08:59:40.373Z,76.03
2018-06-27T09:01:48.682Z,76.23
2018-06-27T09:02:50.736Z,76.61
2018-06-27T09:04:01.494Z,76.13
2018-06-27T09:05:07.544Z,76.13
2018-06-27T09:06:06.119Z,76.45
2018-06-27T09:09:31.550Z,76.26
2018-06-27T09:10:35.020Z,76.26
2018-06-27T09:11:34.823Z,76.36
2018-06-27T09:12:43.640Z,76.10
2018-06-27T09:13:49.283Z,75.72
2018-06-27T09:14:56.347Z,75.82
2018-06-27T09:16:07.924Z,75.05
2018-06-27T09:18:21.664Z,74.57
2018-06-27T09:19:18.391Z,75.05
2018-06-27T09:21:31.408Z,75.82
2018-06-27T09:22:45.548Z,75.24
2018-06-27T09:23:36.645Z,74.66
2018-06-27T09:24:57.544Z,74.02
2018-06-27T09:25:52.121Z,74.31
2018-06-27T09:26:53.868Z,73.15
2018-06-27T09:28:06.983Z,72.38
2018-06-27T09:29:10.573Z,72.67
2018-06-27T09:31:24.206Z,72.19
2018-06-27T09:32:21.460Z,72.28
2018-06-27T09:33:43.984Z,72.48
2018-06-27T09:35:45.328Z,72.28
2018-06-27T09:36:46.768Z,71.90
2018-06-27T09:38:07.153Z,72.19
2018-06-27T09:40:23.141Z,72.32
2018-06-27T09:41:20.794Z,72.22
2018-06-27T09:42:30.848Z,72.71
2018-06-27T09:43:18.559Z,71.36
2018-06-27T09:45:39.150Z,71.06
2018-06-27T09:46:47.145Z,70.87
2018-06-27T09:48:59.959Z,70.81
2018-06-27T09:50:06.212Z,70.81
2018-06-27T09:50:51.573Z,70.72
2018-06-27T09:52:22.914Z,70.72
2018-06-27T09:53:32.658Z,70.90
2018-06-27T09:54:32.972Z,70.32
2018-06-27T09:55:33.688Z,70.04
2018-06-27T09:56:41.198Z,70.94
2018-06-27T09:57:37.591Z,70.36
2018-06-27T09:58:44.254Z,69.49
2018-06-27T10:00:14.061Z,68.91
2018-06-27T10:01:02.393Z,68.52
2018-06-27T10:02:12.224Z,68.62
2018-06-27T10:03:08.755Z,68.43
2018-06-27T10:04:18.694Z,68.27
2018-06-27T10:05:44.302Z,68.24
2018-06-27T10:09:35.014Z,65.85
2018-06-27T10:10:41.266Z,66.05
2018-06-27T10:11:48.551Z,67.11
2018-06-27T10:12:44.261Z,67.21
2018-06-27T10:15:47.654Z,66.47
2018-06-27T10:16:12.429Z,67.53
2018-06-27T10:17:20.264Z,67.33
2018-06-27T10:18:16.744Z,67.14
2018-06-27T10:21:38.982Z,64.17
2018-06-27T10:22:51.792Z,63.69
2018-06-27T10:23:44.547Z,63.69
2018-06-27T10:25:59.186Z,64.27
2018-06-27T10:27:01.754Z,64.56
2018-06-27T10:29:11.287Z,63.21
2018-06-27T10:31:31.477Z,62.37
2018-06-27T10:32:30.149Z,62.07
2018-06-27T10:33:37.732Z,61.49
2018-06-27T10:34:41.661Z,60.91
2018-06-27T10:35:48.641Z,61.40
2018-06-27T10:37:04.897Z,61.49
2018-06-27T10:38:10.852Z,61.88
2018-06-27T10:38:54.765Z,62.20
2018-06-27T10:40:05.014Z,61.82
2018-06-27T10:41:17.922Z,61.24
2018-06-27T10:42:40.969Z,60.75
2018-06-27T10:44:38.294Z,59.39
2018-06-27T10:45:52.354Z,59.10
2018-06-27T10:46:50.008Z,60.27
2018-06-27T10:48:58.523Z,60.00
2018-06-27T10:50:13.689Z,58.26
2018-06-27T10:51:06.729Z,58.84
2018-06-27T10:53:20.870Z,57.22
2018-06-27T10:55:38.496Z,56.35
2018-06-27T10:57:35.950Z,57.70
2018-06-27T10:58:39.336Z,57.51
2018-06-27T10:59:48.487Z,57.93
2018-06-27T11:01:12.457Z,56.74
2018-06-27T11:02:03.421Z,56.09
2018-06-27T11:03:09.594Z,55.79
2018-06-27T11:04:09.670Z,56.76
2018-06-27T11:05:23.844Z,56.86
2018-06-27T11:07:30.905Z,55.18
2018-06-27T11:08:47.912Z,55.08
2018-06-27T11:09:38.694Z,55.28
2018-06-27T11:10:47.096Z,54.82
2018-06-27T11:12:03.180Z,54.72
2018-06-27T11:12:51.821Z,54.24
2018-06-27T11:14:08.282Z,55.21
2018-06-27T11:15:00.334Z,55.41
2018-06-27T11:16:10.376Z,55.21
2018-06-27T11:17:17.352Z,55.24
2018-06-27T11:19:23.303Z,55.14
2018-06-27T11:20:48.600Z,55.43
2018-06-27T11:21:30.788Z,54.85
2018-06-27T11:24:03.983Z,54.75
2018-06-27T11:24:59.792Z,54.66
2018-06-27T11:26:11.467Z,53.69
2018-06-27T11:27:32.365Z,52.11
2018-06-27T11:28:09.024Z,52.11
2018-06-27T11:29:32.582Z,52.23
2018-06-27T11:30:27.062Z,51.84
2018-06-27T11:31:28.500Z,51.93
2018-06-27T11:33:03.838Z,50.87
2018-06-27T11:34:02.410Z,51.93
2018-06-27T11:35:26.581Z,51.28
2018-06-27T11:36:39.797Z,50.21
2018-06-27T11:38:02.950Z,51.48
2018-06-27T11:39:27.532Z,51.77
2018-06-27T11:40:14.335Z,52.47
2018-06-27T11:41:38.810Z,51.97
2018-06-27T11:43:53.265Z,51.01
2018-06-27T11:45:38.527Z,51.50
2018-06-27T11:46:51.521Z,50.41
2018-06-27T11:47:56.668Z,50.53
2018-06-27T11:49:01.076Z,50.43
2018-06-27T11:50:11.735Z,48.85
2018-06-27T11:51:14.684Z,49.24
2018-06-27T11:52:17.586Z,50.12
2018-06-27T11:53:27.421Z,49.34
2018-06-27T11:55:40.131Z,50.12
2018-06-27T11:57:47.518Z,48.73
2018-06-27T11:58:47.730Z,48.64
2018-06-27T11:59:59.513Z,49.22
2018-06-27T12:02:06.183Z,48.73
2018-06-27T12:03:29.539Z,48.05
2018-06-27T12:06:43.381Z,50.36
2018-06-27T12:08:09.192Z,50.07
2018-06-27T12:08:56.707Z,50.36
2018-06-27T12:10:58.874Z,50.26
2018-06-27T12:11:56.947Z,49.80
2018-06-27T12:13:04.012Z,50.09
2018-06-27T12:14:27.153Z,50.38
2018-06-27T12:15:09.240Z,49.51
2018-06-27T12:16:10.988Z,48.93
2018-06-27T12:17:31.373Z,49.22
2018-06-27T12:18:26.678Z,48.83
2018-06-27T12:19:40.534Z,48.54
2018-06-27T12:20:48.801Z,48.05
2018-06-27T12:22:03.965Z,47.86
2018-06-27T12:23:11.037Z,48.73
2018-06-27T12:23:58.695Z,48.90
2018-06-27T12:25:13.404Z,48.54
2018-06-27T12:26:09.827Z,49.41
2018-06-27T12:28:18.851Z,48.05
2018-06-27T12:29:46.711Z,48.54
2018-06-27T12:31:41.604Z,49.05
2018-06-27T12:32:53.593Z,48.47
2018-06-27T12:33:47.354Z,48.85
2018-06-27T12:35:54.124Z,47.30
2018-06-27T12:37:07.751Z,49.44
2018-06-27T12:39:08.992Z,48.18
2018-06-27T12:40:24.361Z,47.69
2018-06-27T12:41:22.216Z,47.40
2018-06-27T12:42:46.706Z,47.49
2018-06-27T12:43:36.770Z,47.30
2018-06-27T12:44:47.325Z,47.42
2018-06-27T12:47:57.278Z,46.42
2018-06-27T12:49:07.833Z,46.23
2018-06-27T12:50:20.127Z,47.01
2018-06-27T12:53:30.287Z,46.79
2018-06-27T12:56:49.455Z,48.32
2018-06-27T12:57:53.761Z,47.38
2018-06-27T12:58:58.990Z,46.89
2018-06-27T13:00:02.787Z,46.69
2018-06-27T13:01:03.101Z,46.50
2018-06-27T13:02:11.914Z,46.50
2018-06-27T13:04:23.395Z,46.79
2018-06-27T13:05:27.601Z,47.08
2018-06-27T13:06:30.475Z,46.01
2018-06-27T13:07:39.596Z,46.41
2018-06-27T13:08:42.776Z,46.01
2018-06-27T13:09:48.929Z,46.69
2018-06-27T13:10:59.688Z,47.38
2018-06-27T13:12:00.707Z,47.98
2018-06-27T13:14:18.857Z,46.21
2018-06-27T13:15:38.849Z,46.41
2018-06-27T13:16:43.035Z,46.60
2018-06-27T13:18:11.305Z,46.50
2018-06-27T13:18:58.077Z,46.50
2018-06-27T13:20:43.784Z,46.79
2018-06-27T13:21:52.696Z,46.41
2018-06-27T13:22:59.152Z,46.48
2018-06-27T13:26:30.815Z,47.16
2018-06-27T13:27:26.009Z,47.35
2018-06-27T13:28:20.592Z,47.35
2018-06-27T13:29:30.632Z,47.83
2018-06-27T13:30:37.582Z,47.83
2018-06-27T13:33:44.893Z,47.47
2018-06-27T13:36:12.255Z,46.69
2018-06-27T13:37:05.084Z,46.50
2018-06-27T13:38:18.926Z,46.50
2018-06-27T13:41:40.955Z,46.69
2018-06-27T13:42:10.342Z,46.31
2018-06-27T13:43:09.326Z,45.53
2018-06-27T13:44:32.481Z,45.72
2018-06-27T13:45:24.394Z,45.43
2018-06-27T13:47:31.471Z,45.04
2018-06-27T13:48:34.146Z,44.95
2018-06-27T13:50:56.068Z,44.65
2018-06-27T13:52:03.241Z,45.04
2018-06-27T13:52:58.135Z,45.14
2018-06-27T13:54:06.336Z,44.17
2018-06-27T13:55:07.869Z,44.27
2018-06-27T13:56:19.661Z,44.07
2018-06-27T13:57:24.268Z,44.37
2018-06-27T13:58:26.937Z,44.37
2018-06-27T13:59:31.151Z,43.40
2018-06-27T14:00:37.096Z,44.27
2018-06-27T14:01:51.334Z,42.91
2018-06-27T14:02:56.050Z,42.33
2018-06-27T14:04:00.868Z,41.94
2018-06-27T14:04:57.085Z,42.52
2018-06-27T14:06:03.745Z,41.55
2018-06-27T14:07:07.556Z,41.64
2018-06-27T14:08:09.801Z,41.64
2018-06-27T14:09:28.753Z,41.74
2018-06-27T14:10:28.964Z,41.26
2018-06-27T14:11:35.846Z,40.97
2018-06-27T14:12:39.422Z,41.06
2018-06-27T14:13:47.110Z,41.36
2018-06-27T14:16:05.965Z,40.77
2018-06-27T14:19:15.003Z,41.45
2018-06-27T14:20:11.009Z,41.94
2018-06-27T14:21:25.666Z,41.74
2018-06-27T14:23:35.607Z,39.61
2018-06-27T14:24:43.907Z,40.75
2018-06-27T14:25:50.984Z,40.66
2018-06-27T14:27:03.785Z,40.77
2018-06-27T14:28:57.451Z,40.75
2018-06-27T14:32:19.589Z,40.08
2018-06-27T14:33:46.731Z,39.98
2018-06-27T14:34:42.544Z,40.36
2018-06-27T14:35:38.145Z,39.59
2018-06-27T14:36:52.795Z,39.78
2018-06-27T14:37:47.727Z,39.88
2018-06-27T14:38:56.289Z,40.17
2018-06-27T14:39:53.736Z,40.56
2018-06-27T14:40:57.327Z,40.46
2018-06-27T14:42:07.782Z,39.11
2018-06-27T14:43:20.791Z,39.88
2018-06-27T14:44:13.119Z,40.46
2018-06-27T14:45:24.597Z,40.66
2018-06-27T14:46:49.387Z,41.43
2018-06-27T14:47:32.128Z,41.82
2018-06-27T14:48:43.761Z,41.05
2018-06-27T14:50:04.969Z,41.33
2018-06-27T14:50:55.623Z,41.61
2018-06-27T14:52:00.883Z,41.31
2018-06-27T14:52:57.510Z,41.61
2018-06-27T14:54:09.090Z,42.38
2018-06-27T14:55:20.154Z,42.77
2018-06-27T14:56:17.704Z,42.38
2018-06-27T14:57:13.921Z,42.86
2018-06-27T14:58:44.240Z,43.84
2018-06-27T15:00:54.185Z,45.00
2018-06-27T15:01:48.867Z,44.13
2018-06-27T15:02:49.386Z,44.32
2018-06-27T15:05:04.967Z,43.54
2018-06-27T15:06:09.792Z,44.03
2018-06-27T15:07:19.524Z,44.13
2018-06-27T15:09:18.817Z,44.30
2018-06-27T15:10:25.788Z,44.32
2018-06-27T15:11:33.474Z,44.10
2018-06-27T15:12:42.595Z,44.20
2018-06-27T15:14:00.527Z,44.88
2018-06-27T15:16:02.801Z,44.71
2018-06-27T15:17:14.059Z,45.17
2018-06-27T15:18:13.757Z,44.71
2018-06-27T15:20:17.665Z,44.20
2018-06-27T15:21:24.839Z,44.20
2018-06-27T15:22:27.506Z,44.23
2018-06-27T15:23:40.607Z,44.42
2018-06-27T15:24:45.446Z,43.16
2018-06-27T15:25:44.320Z,42.85
2018-06-27T15:26:51.145Z,42.85
2018-06-27T15:27:50.785Z,43.13
2018-06-27T15:30:10.972Z,44.20
2018-06-27T15:31:11.593Z,44.30
2018-06-27T15:33:34.237Z,44.30
2018-06-27T15:34:28.407Z,43.04
2018-06-27T15:35:38.358Z,42.75
2018-06-27T15:36:41.155Z,42.36
2018-06-27T15:38:57.313Z,42.65
2018-06-27T15:41:09.923Z,43.23
2018-06-27T15:42:15.968Z,42.94
2018-06-27T15:43:10.140Z,44.10
2018-06-27T15:45:27.155Z,43.62
2018-06-27T15:46:38.320Z,43.45
2018-06-27T15:47:36.088Z,42.77
2018-06-27T15:48:39.868Z,43.23
2018-06-27T15:49:49.502Z,43.23
2018-06-27T15:52:04.567Z,44.20
2018-06-27T15:53:10.924Z,44.30
2018-06-27T15:54:11.237Z,44.01
2018-06-27T15:55:18.830Z,43.82
2018-06-27T15:57:29.186Z,43.91
2018-06-27T15:58:36.868Z,43.13
2018-06-27T15:59:37.289Z,43.52
2018-06-27T16:00:47.332Z,43.33
2018-06-27T16:01:43.769Z,44.40
2018-06-27T16:03:00.758Z,44.30
2018-06-27T16:04:00.715Z,42.94
2018-06-27T16:05:08.170Z,43.21
2018-06-27T16:06:07.325Z,43.72
2018-06-27T16:07:21.161Z,44.10
2018-06-27T16:08:21.981Z,43.99
2018-06-27T16:09:34.993Z,44.20
2018-06-27T16:10:28.450Z,44.10
2018-06-27T16:11:56.243Z,44.10
2018-06-27T16:13:43.417Z,43.52
2018-06-27T16:15:59.672Z,43.13
2018-06-27T16:17:07.995Z,43.31
2018-06-27T16:18:20.616Z,44.30
2018-06-27T16:19:27.996Z,44.37
2018-06-27T16:20:21.148Z,43.99
2018-06-27T16:21:28.829Z,44.18
2018-06-27T16:22:37.542Z,44.09
2018-06-27T16:23:35.190Z,44.20
2018-06-27T16:25:51.189Z,45.65
2018-06-27T16:27:02.247Z,44.88
2018-06-27T16:28:13.823Z,44.20
2018-06-27T16:29:07.795Z,44.01
2018-06-27T16:30:25.681Z,43.13
2018-06-27T16:32:22.144Z,43.04
2018-06-27T16:33:29.206Z,43.23
2018-06-27T16:35:44.710Z,42.94
2018-06-27T16:38:56.685Z,43.04
2018-06-27T16:40:04.380Z,43.23
2018-06-27T16:41:06.742Z,43.72
2018-06-27T16:42:15.764Z,43.62
2018-06-27T16:43:16.240Z,44.10
2018-06-27T16:44:18.342Z,44.10
2018-06-27T16:45:28.998Z,44.20
2018-06-27T16:46:39.647Z,43.33
2018-06-27T16:47:43.854Z,43.33
2018-06-27T16:48:46.011Z,44.20
2018-06-27T16:49:53.804Z,44.40
2018-06-27T16:51:01.635Z,44.10
2018-06-27T16:54:12.468Z,43.33
2018-06-27T16:57:44.438Z,41.56
2018-06-27T16:58:33.077Z,41.68
2018-06-27T17:00:49.269Z,42.55
2018-06-27T17:03:07.508Z,42.07
2018-06-27T17:04:05.698Z,41.88
2018-06-27T17:05:07.212Z,41.78
2018-06-27T17:06:13.262Z,41.78
2018-06-27T17:08:35.087Z,42.26
2018-06-27T17:09:25.469Z,41.97
2018-06-27T17:10:32.130Z,42.26
2018-06-27T17:11:46.206Z,42.55
2018-06-27T17:14:03.390Z,43.04
2018-06-27T17:14:57.466Z,42.75
2018-06-27T17:16:03.191Z,42.75
2018-06-27T17:17:04.635Z,42.85
2018-06-27T17:18:16.721Z,43.23